Time,TemperatureF,DewpointF,PressureIn,WindDirection,WindDirectionDegrees,WindSpeedMPH,WindSpeedGustMPH,Humidity,HourlyPrecipIn,Conditions,Clouds,dailyrainin,SoftwareType,DateUTC
2013-06-02 00:01:00,78.0,32.0,29.60,West,272,0.0,-999.0,19,-99.99,,,-99.99,,2013-06-02 07:01:00,
2013-06-02 00:11:00,78.0,32.0,29.60,West,272,0.0,-999.0,19,-99.99,,,-99.99,,2013-06-02 07:11:00,
2013-06-02 00:21:00,76.0,32.0,29.59,West,272,0.0,-999.0,20,-99.99,,,-99.99,,2013-06-02 07:21:00,
2013-06-02 00:31:00,76.0,32.0,29.59,West,272,0.0,-999.0,20,-99.99,,,-99.99,,2013-06-02 07:31:00,
2013-06-02 00:42:00,76.0,32.0,29.59,West,271,1.0,-999.0,20,-99.99,,,-99.99,,2013-06-02 07:42:00,
2013-06-02 00:52:00,76.0,32.0,29.59,West,271,1.0,-999.0,20,-99.99,,,-99.99,,2013-06-02 07:52:00,
2013-06-02 01:01:00,77.0,33.0,29.59,West,272,1.0,-999.0,20,-99.99,,,-99.99,,2013-06-02 08:01:00,
2013-06-02 01:11:00,77.0,33.0,29.59,West,272,1.0,-999.0,20,-99.99,,,-99.99,,2013-06-02 08:11:00,
2013-06-02 01:21:00,76.0,33.0,29.59,West,273,1.0,-999.0,21,-99.99,,,-99.99,,2013-06-02 08:21:00,
2013-06-02 01:31:00,76.0,33.0,29.58,West,275,1.0,-999.0,21,-99.99,,,-99.99,,2013-06-02 08:31:00,
2013-06-02 01:41:00,76.0,33.0,29.58,West,275,1.0,-999.0,21,-99.99,,,-99.99,,2013-06-02 08:41:00,
2013-06-02 01:51:00,76.0,33.0,29.58,West,275,1.0,-999.0,21,-99.99,,,-99.99,,2013-06-02 08:51:00,
2013-06-02 02:01:00,75.0,32.0,29.58,West,275,0.0,-999.0,21,-99.99,,,-99.99,,2013-06-02 09:01:00,
2013-06-02 02:11:00,75.0,32.0,29.58,West,275,0.0,-999.0,21,-99.99,,,-99.99,,2013-06-02 09:11:00,
2013-06-02 02:21:00,75.0,32.0,29.57,West,273,2.0,-999.0,21,-99.99,,,-99.99,,2013-06-02 09:21:00,
2013-06-02 02:33:00,75.0,32.0,29.57,West,277,2.0,-999.0,21,-99.99,,,-99.99,,2013-06-02 09:33:00,
2013-06-02 02:42:00,75.0,32.0,29.57,West,277,2.0,-999.0,21,-99.99,,,-99.99,,2013-06-02 09:42:00,
2013-06-02 02:53:00,74.0,32.0,29.57,West,277,1.0,-999.0,21,-99.99,,,-99.99,,2013-06-02 09:53:00,
2013-06-02 03:02:00,74.0,33.0,29.58,SSW,200,0.0,-999.0,22,-99.99,,,-99.99,,2013-06-02 10:02:00,
2013-06-02 03:12:00,74.0,33.0,29.58,SSW,200,0.0,-999.0,22,-99.99,,,-99.99,,2013-06-02 10:12:00,
2013-06-02 03:22:00,72.0,32.0,29.58,SSW,196,0.0,-999.0,23,-99.99,,,-99.99,,2013-06-02 10:22:00,
2013-06-02 03:32:00,72.0,32.0,29.57,SSW,196,0.0,-999.0,23,-99.99,,,-99.99,,2013-06-02 10:32:00,
2013-06-02 03:42:00,72.0,32.0,29.57,SSW,196,0.0,-999.0,23,-99.99,,,-99.99,,2013-06-02 10:42:00,
2013-06-02 03:52:00,71.0,32.0,29.57,SSW,196,0.0,-999.0,24,-99.99,,,-99.99,,2013-06-02 10:52:00,
2013-06-02 04:02:00,69.0,33.0,29.57,SSW,196,0.0,-999.0,26,-99.99,,,-99.99,,2013-06-02 11:02:00,
2013-06-02 04:12:00,69.0,33.0,29.57,SSW,196,0.0,-999.0,26,-99.99,,,-99.99,,2013-06-02 11:12:00,
2013-06-02 04:21:00,67.0,32.0,29.57,SSW,196,0.0,-999.0,27,-99.99,,,-99.99,,2013-06-02 11:21:00,
2013-06-02 04:32:00,66.0,32.0,29.57,SSW,196,0.0,-999.0,28,-99.99,,,-99.99,,2013-06-02 11:32:00,
2013-06-02 04:42:00,66.0,32.0,29.57,SSW,196,0.0,-999.0,28,-99.99,,,-99.99,,2013-06-02 11:42:00,
2013-06-02 04:52:00,65.0,31.0,29.57,SSW,196,0.0,-999.0,28,-99.99,,,-99.99,,2013-06-02 11:52:00,
2013-06-02 05:01:00,65.0,32.0,29.57,SSW,196,0.0,-999.0,29,-99.99,,,-99.99,,2013-06-02 12:01:00,
2013-06-02 05:11:00,65.0,32.0,29.57,SSW,196,0.0,-999.0,29,-99.99,,,-99.99,,2013-06-02 12:11:00,
2013-06-02 05:21:00,64.0,33.0,29.57,SSW,196,0.0,-999.0,31,-99.99,,,-99.99,,2013-06-02 12:21:00,
2013-06-02 05:31:00,63.0,33.0,29.58,SSW,196,0.0,-999.0,32,-99.99,,,-99.99,,2013-06-02 12:31:00,
2013-06-02 05:42:00,63.0,33.0,29.58,SSW,196,0.0,-999.0,32,-99.99,,,-99.99,,2013-06-02 12:42:00,
2013-06-02 05:52:00,62.0,33.0,29.59,SSW,196,0.0,-999.0,34,-99.99,,,-99.99,,2013-06-02 12:52:00,
2013-06-02 06:01:00,61.0,33.0,29.59,SSW,196,0.0,-999.0,35,-99.99,,,-99.99,,2013-06-02 13:01:00,
2013-06-02 06:11:00,61.0,33.0,29.59,SSW,196,0.0,-999.0,35,-99.99,,,-99.99,,2013-06-02 13:11:00,
2013-06-02 06:21:00,61.0,35.0,29.60,SSW,196,0.0,-999.0,38,-99.99,,,-99.99,,2013-06-02 13:21:00,
2013-06-02 06:32:00,62.0,37.0,29.60,SSW,196,0.0,-999.0,39,-99.99,,,-99.99,,2013-06-02 13:32:00,
2013-06-02 06:41:00,62.0,37.0,29.60,SSW,196,0.0,-999.0,39,-99.99,,,-99.99,,2013-06-02 13:41:00,
2013-06-02 06:52:00,64.0,39.0,29.60,SSW,196,0.0,-999.0,39,-99.99,,,-99.99,,2013-06-02 13:52:00,
2013-06-02 07:01:00,67.0,42.0,29.60,SSW,196,0.0,-999.0,40,-99.99,,,-99.99,,2013-06-02 14:01:00,
2013-06-02 07:11:00,67.0,42.0,29.60,SSW,196,0.0,-999.0,40,-99.99,,,-99.99,,2013-06-02 14:11:00,
2013-06-02 07:21:00,71.0,36.0,29.61,SSW,196,0.0,-999.0,28,-99.99,,,-99.99,,2013-06-02 14:21:00,
2013-06-02 07:32:00,75.0,35.0,29.61,South,171,0.0,-999.0,23,-99.99,,,-99.99,,2013-06-02 14:32:00,
2013-06-02 07:41:00,75.0,35.0,29.61,South,171,0.0,-999.0,23,-99.99,,,-99.99,,2013-06-02 14:41:00,
2013-06-02 07:51:00,78.0,36.0,29.61,East,84,0.0,-999.0,22,-99.99,,,-99.99,,2013-06-02 14:51:00,
2013-06-02 08:01:00,80.0,35.0,29.61,East,84,0.0,-999.0,20,-99.99,,,-99.99,,2013-06-02 15:01:00,
2013-06-02 08:11:00,80.0,35.0,29.61,East,84,0.0,-999.0,20,-99.99,,,-99.99,,2013-06-02 15:11:00,
2013-06-02 08:21:00,81.0,37.0,29.61,East,83,0.0,-999.0,21,-99.99,,,-99.99,,2013-06-02 15:21:00,
2013-06-02 08:32:00,82.0,37.0,29.61,East,83,0.0,-999.0,20,-99.99,,,-99.99,,2013-06-02 15:32:00,
2013-06-02 08:42:00,83.0,35.0,29.61,East,83,0.0,-999.0,18,-99.99,,,-99.99,,2013-06-02 15:42:00,
2013-06-02 08:53:00,83.0,35.0,29.61,East,83,0.0,-999.0,18,-99.99,,,-99.99,,2013-06-02 15:53:00,
2013-06-02 09:03:00,85.0,35.0,29.61,East,86,0.0,-999.0,17,-99.99,,,-99.99,,2013-06-02 16:03:00,
2013-06-02 09:13:00,85.0,35.0,29.61,East,86,0.0,-999.0,17,-99.99,,,-99.99,,2013-06-02 16:13:00,
2013-06-02 09:23:00,86.0,36.0,29.60,ESE,119,1.0,-999.0,17,-99.99,,,-99.99,,2013-06-02 16:23:00,
2013-06-02 09:32:00,87.0,35.0,29.60,ESE,110,1.0,-999.0,16,-99.99,,,-99.99,,2013-06-02 16:32:00,
2013-06-02 09:42:00,87.0,35.0,29.60,ESE,110,1.0,-999.0,16,-99.99,,,-99.99,,2013-06-02 16:42:00,
2013-06-02 09:52:00,87.0,34.0,29.60,ESE,107,2.0,-999.0,15,-99.99,,,-99.99,,2013-06-02 16:52:00,
2013-06-02 10:02:00,88.0,35.0,29.60,ESE,105,2.0,-999.0,15,-99.99,,,-99.99,,2013-06-02 17:02:00,
2013-06-02 10:12:00,88.0,35.0,29.60,ESE,105,2.0,-999.0,15,-99.99,,,-99.99,,2013-06-02 17:12:00,
2013-06-02 10:22:00,89.0,35.0,29.60,SE,138,4.0,-999.0,15,-99.99,,,-99.99,,2013-06-02 17:22:00,
2013-06-02 10:32:00,91.0,33.0,29.59,ESE,111,7.0,-999.0,13,-99.99,,,-99.99,,2013-06-02 17:32:00,
2013-06-02 10:42:00,92.0,34.0,29.59,SE,130,7.0,-999.0,13,-99.99,,,-99.99,,2013-06-02 17:42:00,
2013-06-02 10:51:00,92.0,34.0,29.59,SE,130,7.0,-999.0,13,-99.99,,,-99.99,,2013-06-02 17:51:00,
2013-06-02 11:01:00,92.0,34.0,29.59,SSE,165,7.0,-999.0,13,-99.99,,,-99.99,,2013-06-02 18:01:00,
2013-06-02 11:11:00,92.0,34.0,29.59,SSE,165,7.0,-999.0,13,-99.99,,,-99.99,,2013-06-02 18:11:00,
2013-06-02 11:21:00,93.0,33.0,29.59,SE,139,8.0,-999.0,12,-99.99,,,-99.99,,2013-06-02 18:21:00,
2013-06-02 11:31:00,94.0,31.0,29.58,ESE,113,7.0,-999.0,11,-99.99,,,-99.99,,2013-06-02 18:31:00,
2013-06-02 11:42:00,95.0,32.0,29.57,SSE,162,6.0,-999.0,11,-99.99,,,-99.99,,2013-06-02 18:42:00,
2013-06-02 11:52:00,95.0,32.0,29.57,SSE,162,6.0,-999.0,11,-99.99,,,-99.99,,2013-06-02 18:52:00,
2013-06-02 12:01:00,95.0,32.0,29.57,SSE,156,5.0,-999.0,11,-99.99,,,-99.99,,2013-06-02 19:01:00,
2013-06-02 12:11:00,95.0,32.0,29.57,SSE,156,5.0,-999.0,11,-99.99,,,-99.99,,2013-06-02 19:11:00,
2013-06-02 12:21:00,94.0,31.0,29.56,SE,124,2.0,-999.0,11,-99.99,,,-99.99,,2013-06-02 19:21:00,
2013-06-02 12:31:00,96.0,33.0,29.56,South,173,3.0,-999.0,11,-99.99,,,-99.99,,2013-06-02 19:31:00,
2013-06-02 12:41:00,96.0,33.0,29.56,South,173,3.0,-999.0,11,-99.99,,,-99.99,,2013-06-02 19:41:00,
2013-06-02 12:52:00,96.0,33.0,29.56,SE,132,4.0,-999.0,11,-99.99,,,-99.99,,2013-06-02 19:52:00,
2013-06-02 13:02:00,96.0,25.0,29.55,SW,234,6.0,-999.0,8,-99.99,,,-99.99,,2013-06-02 20:02:00,
2013-06-02 13:11:00,96.0,25.0,29.55,SW,234,6.0,-999.0,8,-99.99,,,-99.99,,2013-06-02 20:11:00,
2013-06-02 13:21:00,95.0,27.0,29.55,West,281,7.0,-999.0,9,-99.99,,,-99.99,,2013-06-02 20:21:00,
2013-06-02 13:31:00,96.0,28.0,29.54,WNW,296,5.0,-999.0,9,-99.99,,,-99.99,,2013-06-02 20:31:00,
2013-06-02 13:42:00,96.0,28.0,29.54,WNW,296,5.0,-999.0,9,-99.99,,,-99.99,,2013-06-02 20:42:00,
2013-06-02 13:51:00,95.0,27.0,29.54,West,280,3.0,-999.0,9,-99.99,,,-99.99,,2013-06-02 20:51:00,
2013-06-02 14:01:00,95.0,27.0,29.54,SSW,198,3.0,-999.0,9,-99.99,,,-99.99,,2013-06-02 21:01:00,
2013-06-02 14:11:00,95.0,27.0,29.54,SSW,198,3.0,-999.0,9,-99.99,,,-99.99,,2013-06-02 21:11:00,
2013-06-02 14:21:00,96.0,31.0,29.53,West,265,5.0,-999.0,10,-99.99,,,-99.99,,2013-06-02 21:21:00,
2013-06-02 14:33:00,96.0,31.0,29.52,SW,216,3.0,-999.0,10,-99.99,,,-99.99,,2013-06-02 21:33:00,
2013-06-02 14:42:00,96.0,31.0,29.52,SW,216,3.0,-999.0,10,-99.99,,,-99.99,,2013-06-02 21:42:00,
2013-06-02 14:53:00,97.0,29.0,29.52,WSW,247,2.0,-999.0,9,-99.99,,,-99.99,,2013-06-02 21:53:00,
2013-06-02 15:03:00,96.0,28.0,29.52,WNW,288,6.0,-999.0,9,-99.99,,,-99.99,,2013-06-02 22:03:00,
2013-06-02 15:12:00,96.0,28.0,29.52,WNW,288,6.0,-999.0,9,-99.99,,,-99.99,,2013-06-02 22:12:00,
2013-06-02 15:22:00,95.0,27.0,29.52,SW,229,7.0,-999.0,9,-99.99,,,-99.99,,2013-06-02 22:22:00,
2013-06-02 15:33:00,96.0,28.0,29.52,SW,236,6.0,-999.0,9,-99.99,,,-99.99,,2013-06-02 22:33:00,
2013-06-02 15:42:00,96.0,28.0,29.52,SW,236,6.0,-999.0,9,-99.99,,,-99.99,,2013-06-02 22:42:00,
2013-06-02 15:52:00,94.0,27.0,29.51,WSW,254,6.0,-999.0,9,-99.99,,,-99.99,,2013-06-02 22:52:00,
2013-06-02 16:02:00,95.0,27.0,29.51,SSE,161,5.0,-999.0,9,-99.99,,,-99.99,,2013-06-02 23:02:00,
2013-06-02 16:12:00,95.0,27.0,29.51,SSE,161,5.0,-999.0,9,-99.99,,,-99.99,,2013-06-02 23:12:00,
2013-06-02 16:22:00,94.0,27.0,29.51,SW,226,8.0,-999.0,9,-99.99,,,-99.99,,2013-06-02 23:22:00,
2013-06-02 16:32:00,94.0,24.0,29.50,SSW,208,7.0,-999.0,8,-99.99,,,-99.99,,2013-06-02 23:32:00,
2013-06-02 16:42:00,94.0,24.0,29.50,SSW,208,7.0,-999.0,8,-99.99,,,-99.99,,2013-06-02 23:42:00,
2013-06-02 16:52:00,93.0,26.0,29.51,SSW,210,7.0,-999.0,9,-99.99,,,-99.99,,2013-06-02 23:52:00,
2013-06-02 17:01:00,93.0,26.0,29.50,SW,223,4.0,-999.0,9,-99.99,,,-99.99,,2013-06-03 00:01:00,
2013-06-02 17:11:00,93.0,26.0,29.50,West,269,6.0,-999.0,9,-99.99,,,-99.99,,2013-06-03 00:11:00,
2013-06-02 17:21:00,93.0,26.0,29.50,West,269,6.0,-999.0,9,-99.99,,,-99.99,,2013-06-03 00:21:00,
2013-06-02 17:32:00,92.0,25.0,29.49,West,264,5.0,-999.0,9,-99.99,,,-99.99,,2013-06-03 00:32:00,
2013-06-02 17:42:00,92.0,28.0,29.49,West,267,5.0,-999.0,10,-99.99,,,-99.99,,2013-06-03 00:42:00,
2013-06-02 17:51:00,92.0,28.0,29.49,West,267,5.0,-999.0,10,-99.99,,,-99.99,,2013-06-03 00:51:00,
2013-06-02 18:01:00,91.0,24.0,29.49,West,281,6.0,-999.0,9,-99.99,,,-99.99,,2013-06-03 01:01:00,
2013-06-02 18:11:00,91.0,24.0,29.49,West,281,6.0,-999.0,9,-99.99,,,-99.99,,2013-06-03 01:11:00,
2013-06-02 18:21:00,90.0,26.0,29.50,West,260,6.0,-999.0,10,-99.99,,,-99.99,,2013-06-03 01:21:00,
2013-06-02 18:32:00,89.0,25.0,29.49,West,267,5.0,-999.0,10,-99.99,,,-99.99,,2013-06-03 01:32:00,
2013-06-02 18:42:00,89.0,25.0,29.49,West,267,5.0,-999.0,10,-99.99,,,-99.99,,2013-06-03 01:42:00,
2013-06-02 18:52:00,89.0,25.0,29.50,West,270,4.0,-999.0,10,-99.99,,,-99.99,,2013-06-03 01:52:00,
2013-06-02 19:02:00,88.0,25.0,29.51,West,271,4.0,-999.0,10,-99.99,,,-99.99,,2013-06-03 02:02:00,
2013-06-02 19:12:00,88.0,25.0,29.51,West,271,4.0,-999.0,10,-99.99,,,-99.99,,2013-06-03 02:12:00,
2013-06-02 19:22:00,87.0,26.0,29.51,WSW,251,2.0,-999.0,11,-99.99,,,-99.99,,2013-06-03 02:22:00,
2013-06-02 19:32:00,85.0,25.0,29.52,WNW,292,2.0,-999.0,11,-99.99,,,-99.99,,2013-06-03 02:32:00,
2013-06-02 19:42:00,85.0,25.0,29.52,WNW,292,2.0,-999.0,11,-99.99,,,-99.99,,2013-06-03 02:42:00,
2013-06-02 19:52:00,84.0,24.0,29.51,West,265,3.0,-999.0,11,-99.99,,,-99.99,,2013-06-03 02:52:00,
2013-06-02 20:02:00,84.0,24.0,29.52,West,267,3.0,-999.0,11,-99.99,,,-99.99,,2013-06-03 03:02:00,
2013-06-02 20:12:00,84.0,24.0,29.52,West,267,3.0,-999.0,11,-99.99,,,-99.99,,2013-06-03 03:12:00,
2013-06-02 20:22:00,81.0,24.0,29.53,West,267,0.0,-999.0,12,-99.99,,,-99.99,,2013-06-03 03:22:00,
2013-06-02 20:33:00,79.0,24.0,29.53,West,267,0.0,-999.0,13,-99.99,,,-99.99,,2013-06-03 03:33:00,
2013-06-02 20:43:00,79.0,24.0,29.53,West,267,0.0,-999.0,13,-99.99,,,-99.99,,2013-06-03 03:43:00,
2013-06-02 20:53:00,79.0,24.0,29.53,West,267,0.0,-999.0,13,-99.99,,,-99.99,,2013-06-03 03:53:00,
2013-06-02 21:02:00,77.0,26.0,29.53,West,267,0.0,-999.0,15,-99.99,,,-99.99,,2013-06-03 04:02:00,
2013-06-02 21:12:00,77.0,26.0,29.53,West,267,0.0,-999.0,15,-99.99,,,-99.99,,2013-06-03 04:12:00,
2013-06-02 21:23:00,77.0,27.0,29.54,West,267,0.0,-999.0,16,-99.99,,,-99.99,,2013-06-03 04:23:00,
2013-06-02 21:33:00,74.0,26.0,29.54,West,267,0.0,-999.0,17,-99.99,,,-99.99,,2013-06-03 04:33:00,
2013-06-02 21:42:00,74.0,26.0,29.54,West,267,0.0,-999.0,17,-99.99,,,-99.99,,2013-06-03 04:42:00,
2013-06-02 21:52:00,75.0,27.0,29.55,West,268,0.0,-999.0,17,-99.99,,,-99.99,,2013-06-03 04:52:00,
2013-06-02 22:02:00,77.0,27.0,29.55,West,268,0.0,-999.0,16,-99.99,,,-99.99,,2013-06-03 05:02:00,
2013-06-02 22:12:00,77.0,29.0,29.55,West,268,0.0,-999.0,17,-99.99,,,-99.99,,2013-06-03 05:12:00,
2013-06-02 22:22:00,77.0,29.0,29.55,West,268,0.0,-999.0,17,-99.99,,,-99.99,,2013-06-03 05:22:00,
2013-06-02 22:32:00,76.0,29.0,29.55,West,268,0.0,-999.0,18,-99.99,,,-99.99,,2013-06-03 05:32:00,
2013-06-02 22:42:00,76.0,29.0,29.55,West,268,0.0,-999.0,18,-99.99,,,-99.99,,2013-06-03 05:42:00,
2013-06-02 22:52:00,75.0,30.0,29.56,West,268,0.0,-999.0,19,-99.99,,,-99.99,,2013-06-03 05:52:00,
2013-06-02 23:02:00,73.0,31.0,29.56,West,268,0.0,-999.0,21,-99.99,,,-99.99,,2013-06-03 06:02:00,
2013-06-02 23:12:00,73.0,31.0,29.56,West,268,0.0,-999.0,21,-99.99,,,-99.99,,2013-06-03 06:12:00,
2013-06-02 23:22:00,73.0,30.0,29.57,West,268,0.0,-999.0,20,-99.99,,,-99.99,,2013-06-03 06:22:00,
2013-06-02 23:32:00,77.0,30.0,29.57,WSW,244,1.0,-999.0,18,-99.99,,,-99.99,,2013-06-03 06:32:00,
2013-06-02 23:42:00,77.0,30.0,29.57,WSW,244,1.0,-999.0,18,-99.99,,,-99.99,,2013-06-03 06:42:00,
2013-06-02 23:52:00,76.0,29.0,29.56,West,281,4.0,-999.0,18,-99.99,,,-99.99,,2013-06-03 06:52:00,